createdAt,value
2019-06-07T00:01:50.809Z,7.40
2019-06-07T00:04:21.457Z,7.28
2019-06-07T00:06:51.565Z,7.33
2019-06-07T00:09:22.466Z,7.12
2019-06-07T00:11:52.938Z,7.78
2019-06-07T00:14:22.718Z,7.33
2019-06-07T00:16:52.550Z,6.80
2019-06-07T00:19:22.327Z,6.55
2019-06-07T00:22:17.656Z,6.17
2019-06-07T00:24:23.507Z,6.53
2019-06-07T00:26:58.873Z,5.90
2019-06-07T00:29:25.010Z,6.55
2019-06-07T00:31:55.020Z,6.47
2019-06-07T00:34:25.086Z,5.87
2019-06-07T00:36:55.253Z,6.12
2019-06-07T00:39:26.028Z,5.53
2019-06-07T00:41:56.390Z,5.72
2019-06-07T00:44:26.118Z,5.40
2019-06-07T00:46:55.927Z,5.10
2019-06-07T00:49:40.970Z,5.15
2019-06-07T00:51:57.279Z,5.20
2019-06-07T00:54:27.201Z,5.10
2019-06-07T00:56:56.944Z,5.75
2019-06-07T00:59:29.409Z,5.33
2019-06-07T01:01:58.342Z,5.58
2019-06-07T01:04:28.374Z,5.37
2019-06-07T01:06:58.247Z,6.22
2019-06-07T01:09:28.165Z,5.55
2019-06-07T01:11:57.942Z,5.87
2019-06-07T01:14:28.869Z,6.20
2019-06-07T01:17:20.130Z,6.72
2019-06-07T01:19:31.601Z,6.55
2019-06-07T01:22:01.371Z,6.20
2019-06-07T01:24:31.212Z,6.08
2019-06-07T01:27:00.974Z,6.33
2019-06-07T01:29:31.269Z,6.10
2019-06-07T01:32:01.262Z,5.53
2019-06-07T01:34:30.987Z,5.85
2019-06-07T01:37:00.938Z,6.03
2019-06-07T01:39:31.878Z,5.83
2019-06-07T01:42:01.963Z,6.47
2019-06-07T01:44:31.949Z,5.40
2019-06-07T01:47:04.346Z,4.97
2019-06-07T01:49:34.270Z,5.05
2019-06-07T01:52:03.966Z,5.22
2019-06-07T01:54:56.787Z,5.00
2019-06-07T01:57:06.352Z,5.65
2019-06-07T01:59:36.193Z,5.80
2019-06-07T02:02:06.410Z,5.53
2019-06-07T02:04:36.302Z,5.00
2019-06-07T02:07:06.332Z,5.35
2019-06-07T02:09:36.172Z,5.75
2019-06-07T02:12:25.251Z,6.03
2019-06-07T02:14:37.924Z,5.58
2019-06-07T02:17:07.756Z,5.45
2019-06-07T02:19:37.608Z,6.08
2019-06-07T02:22:07.302Z,5.50
2019-06-07T02:24:37.202Z,5.47
2019-06-07T02:27:07.100Z,6.05
2019-06-07T02:29:36.915Z,6.08
2019-06-07T02:32:06.715Z,5.85
2019-06-07T02:34:39.642Z,5.70
2019-06-07T02:37:07.952Z,5.87
2019-06-07T02:39:40.883Z,5.95
2019-06-07T02:42:09.319Z,6.33
2019-06-07T02:44:40.344Z,5.87
2019-06-07T02:47:10.403Z,6.33
2019-06-07T02:49:44.285Z,5.53
2019-06-07T02:52:13.864Z,6.08
2019-06-07T02:54:43.678Z,5.97
2019-06-07T02:57:13.423Z,6.20
2019-06-07T03:00:05.013Z,5.60
2019-06-07T03:02:15.269Z,6.35
2019-06-07T03:04:45.233Z,6.30
2019-06-07T03:07:16.274Z,6.03
2019-06-07T03:09:47.217Z,5.80
2019-06-07T03:12:19.005Z,6.15
2019-06-07T03:14:49.450Z,5.28
2019-06-07T03:17:38.874Z,6.45
2019-06-07T03:20:11.600Z,5.90
2019-06-07T03:22:43.411Z,5.72
2019-06-07T03:25:13.583Z,5.87
2019-06-07T03:27:50.028Z,5.85
2019-06-07T03:30:38.966Z,5.65
2019-06-07T03:32:48.537Z,6.62
2019-06-07T03:35:18.850Z,6.10
2019-06-07T03:37:48.580Z,5.45
2019-06-07T03:40:18.301Z,5.25
2019-06-07T03:42:48.006Z,6.08
2019-06-07T03:45:17.745Z,5.50
2019-06-07T03:47:47.558Z,5.58
2019-06-07T03:50:17.382Z,5.95
2019-06-07T03:52:47.211Z,6.00
2019-06-07T03:55:17.006Z,6.08
2019-06-07T03:58:30.186Z,5.67
2019-06-07T04:00:18.485Z,5.67
2019-06-07T04:02:48.338Z,6.15
2019-06-07T04:05:19.335Z,6.55
2019-06-07T04:07:49.090Z,6.03
2019-06-07T04:10:18.926Z,6.12
2019-06-07T04:12:48.714Z,6.30
2019-06-07T04:15:18.567Z,6.30
2019-06-07T04:18:01.505Z,5.53
2019-06-07T04:20:19.826Z,6.47
2019-06-07T04:22:49.631Z,5.72
2019-06-07T04:25:19.429Z,6.40
2019-06-07T04:27:49.236Z,7.00
2019-06-07T04:30:39.522Z,6.83
2019-06-07T04:33:09.380Z,6.20
2019-06-07T04:35:43.088Z,6.53
2019-06-07T04:38:12.206Z,5.85
2019-06-07T04:40:43.692Z,5.60
2019-06-07T04:43:14.622Z,6.33
2019-06-07T04:45:50.745Z,5.30
2019-06-07T04:48:15.993Z,5.47
2019-06-07T04:50:45.790Z,6.28
2019-06-07T04:53:15.442Z,5.85
2019-06-07T04:55:45.181Z,5.58
2019-06-07T04:58:14.941Z,6.00
2019-06-07T05:00:55.644Z,5.92
2019-06-07T05:03:16.058Z,5.70
2019-06-07T05:05:45.825Z,5.95
2019-06-07T05:08:27.703Z,5.75
2019-06-07T05:10:47.026Z,5.72
2019-06-07T05:13:16.800Z,5.17
2019-06-07T05:15:46.431Z,5.97
2019-06-07T05:18:16.139Z,5.50
2019-06-07T05:20:45.898Z,5.80
2019-06-07T05:23:59.556Z,5.50
2019-06-07T05:25:47.109Z,5.67
2019-06-07T05:28:16.924Z,5.62
2019-06-07T05:33:18.155Z,5.72
2019-06-07T05:35:47.914Z,5.47
2019-06-07T05:38:17.772Z,5.10
2019-06-07T05:40:49.141Z,5.28
2019-06-07T05:43:24.408Z,5.53
2019-06-07T05:45:54.175Z,5.00
2019-06-07T05:48:23.858Z,6.15
2019-06-07T05:50:56.790Z,6.03
2019-06-07T05:53:24.963Z,4.95
2019-06-07T05:55:54.708Z,4.97
2019-06-07T05:58:24.479Z,5.78
2019-06-07T06:00:54.349Z,5.03
2019-06-07T06:03:24.090Z,4.80
2019-06-07T06:05:55.585Z,5.03
2019-06-07T06:08:25.276Z,5.00
2019-06-07T06:10:55.071Z,4.87
2019-06-07T06:13:25.018Z,4.95
2019-06-07T06:16:01.846Z,4.40
2019-06-07T06:18:26.117Z,5.42
2019-06-07T06:21:15.540Z,5.50
2019-06-07T06:23:27.417Z,4.80
2019-06-07T06:25:58.291Z,4.65
2019-06-07T06:28:28.391Z,4.83
2019-06-07T06:30:58.111Z,4.87
2019-06-07T06:33:34.554Z,4.50
2019-06-07T06:35:59.519Z,5.05
2019-06-07T06:38:29.392Z,5.00
2019-06-07T06:41:14.726Z,4.97
2019-06-07T06:43:30.631Z,5.22
2019-06-07T06:46:00.455Z,4.95
2019-06-07T06:48:30.207Z,5.37
2019-06-07T06:51:00.023Z,5.40
2019-06-07T06:53:30.823Z,4.95
2019-06-07T06:56:00.584Z,4.62
2019-06-07T06:59:18.513Z,5.70
2019-06-07T07:01:06.693Z,4.85
2019-06-07T07:03:57.659Z,4.97
2019-06-07T07:06:25.068Z,4.83
2019-06-07T07:08:37.791Z,4.70
2019-06-07T07:11:07.565Z,4.75
2019-06-07T07:13:37.500Z,4.05
2019-06-07T07:16:07.280Z,4.22
2019-06-07T07:18:37.130Z,3.77
2019-06-07T07:21:06.984Z,3.60
2019-06-07T07:23:36.758Z,3.90
2019-06-07T07:26:06.603Z,3.50
2019-06-07T07:28:36.462Z,3.65
2019-06-07T07:31:06.283Z,4.37
2019-06-07T07:36:28.154Z,3.45
2019-06-07T07:38:38.768Z,3.27
2019-06-07T07:41:15.257Z,3.92
2019-06-07T07:43:40.046Z,3.55
2019-06-07T07:46:28.579Z,3.62
2019-06-07T07:48:41.254Z,3.30
2019-06-07T07:51:11.105Z,3.08
2019-06-07T07:53:52.410Z,3.10
2019-06-07T07:56:12.383Z,3.52
2019-06-07T07:58:42.210Z,3.30
2019-06-07T08:01:12.015Z,3.00
2019-06-07T08:03:41.709Z,3.02
2019-06-07T08:06:11.663Z,2.90
2019-06-07T08:08:41.322Z,3.22
2019-06-07T08:11:11.013Z,3.10
2019-06-07T08:13:40.776Z,3.35
2019-06-07T08:16:16.244Z,3.10
2019-06-07T08:18:41.979Z,4.80
2019-06-07T08:21:24.363Z,4.22
2019-06-07T08:23:43.143Z,3.22
2019-06-07T08:26:12.852Z,3.02
2019-06-07T08:28:42.709Z,3.30
2019-06-07T08:31:12.459Z,3.87
2019-06-07T08:33:42.224Z,3.60
2019-06-07T08:36:20.262Z,3.30
2019-06-07T08:38:48.154Z,3.33
2019-06-07T08:41:14.860Z,3.27
2019-06-07T08:43:44.684Z,3.33
2019-06-07T08:46:14.418Z,3.17
2019-06-07T08:48:44.231Z,3.02
2019-06-07T08:51:13.951Z,3.50
2019-06-07T08:54:00.628Z,3.83
2019-06-07T08:56:15.123Z,3.30
2019-06-07T08:58:44.944Z,5.00
2019-06-07T09:01:14.789Z,5.05
2019-06-07T09:03:44.610Z,5.60
2019-06-07T09:07:01.316Z,3.98
2019-06-07T09:08:45.903Z,3.92
2019-06-07T09:11:15.738Z,4.15
2019-06-07T09:13:45.499Z,4.12
2019-06-07T09:16:15.278Z,4.28
2019-06-07T09:18:45.297Z,4.22
2019-06-07T09:21:15.231Z,4.42
2019-06-07T09:23:45.034Z,5.10
2019-06-07T09:26:18.385Z,4.58
2019-06-07T09:28:46.802Z,4.20
2019-06-07T09:31:16.637Z,4.50
2019-06-07T09:33:46.498Z,4.47
2019-06-07T09:36:16.356Z,4.78
2019-06-07T09:38:46.103Z,5.10
2019-06-07T09:41:15.952Z,4.58
2019-06-07T09:44:18.355Z,5.03
2019-06-07T09:46:17.342Z,4.80
2019-06-07T09:49:12.353Z,4.92
2019-06-07T09:51:20.453Z,4.45
2019-06-07T09:53:50.116Z,5.28
2019-06-07T09:56:19.847Z,5.60
2019-06-07T09:58:52.831Z,4.28
2019-06-07T10:01:20.929Z,4.87
2019-06-07T10:03:50.671Z,5.00
2019-06-07T10:06:20.542Z,5.05
2019-06-07T10:11:21.572Z,5.20
2019-06-07T10:13:51.437Z,5.67
2019-06-07T10:16:21.243Z,5.47
2019-06-07T10:18:51.034Z,5.17
2019-06-07T10:21:20.750Z,5.28
2019-06-07T10:23:50.542Z,5.92
2019-06-07T10:26:20.256Z,6.67
2019-06-07T10:28:53.464Z,7.05
2019-06-07T10:31:21.467Z,6.55
2019-06-07T10:33:51.255Z,5.92
2019-06-07T10:36:21.042Z,6.08
2019-06-07T10:38:51.000Z,5.65
2019-06-07T10:41:20.820Z,5.78
2019-06-07T10:43:50.599Z,6.53
2019-06-07T10:46:20.431Z,6.00
2019-06-07T10:48:50.213Z,6.00
2019-06-07T10:51:20.020Z,6.67
2019-06-07T10:53:50.165Z,5.65
2019-06-07T10:56:19.980Z,5.92
2019-06-07T10:58:49.785Z,6.42
2019-06-07T11:01:19.547Z,6.03
2019-06-07T11:03:49.365Z,5.15
2019-06-07T11:06:19.197Z,6.05
2019-06-07T11:08:49.062Z,6.12
2019-06-07T11:11:18.804Z,5.35
2019-06-07T11:13:48.618Z,5.67
2019-06-07T11:16:18.267Z,5.42
2019-06-07T11:18:47.974Z,5.50
2019-06-07T11:21:18.636Z,5.58
2019-06-07T11:23:48.517Z,5.95
2019-06-07T11:26:18.641Z,5.70
2019-06-07T11:28:48.539Z,5.70
2019-06-07T11:31:18.934Z,5.87
2019-06-07T11:33:48.859Z,6.15
2019-06-07T11:36:18.885Z,5.40
2019-06-07T11:38:49.030Z,5.70
2019-06-07T11:41:18.819Z,6.12
2019-06-07T11:43:48.656Z,5.80
2019-06-07T11:46:18.535Z,5.25
2019-06-07T11:48:48.284Z,6.05
2019-06-07T11:51:18.930Z,5.67
2019-06-07T11:53:48.720Z,5.10
2019-06-07T11:56:18.551Z,5.28
2019-06-07T11:58:48.354Z,4.97
2019-06-07T12:01:18.688Z,5.72
2019-06-07T12:03:48.836Z,6.47
2019-06-07T12:06:18.685Z,7.65
2019-06-07T12:08:48.447Z,6.58
2019-06-07T12:11:18.519Z,6.20
2019-06-07T12:13:48.393Z,6.30
2019-06-07T12:16:19.432Z,6.45
2019-06-07T12:18:49.348Z,6.22
2019-06-07T12:21:19.861Z,5.53
2019-06-07T12:23:49.761Z,7.20
2019-06-07T12:26:20.669Z,7.17
2019-06-07T12:28:50.865Z,7.20
2019-06-07T12:31:21.201Z,8.20
2019-06-07T12:33:51.268Z,7.15
2019-06-07T12:36:22.019Z,6.60
2019-06-07T12:38:51.947Z,9.15
2019-06-07T12:41:22.393Z,8.43
2019-06-07T12:43:52.222Z,8.78
2019-06-07T12:46:27.969Z,8.48
2019-06-07T12:48:53.483Z,8.80
2019-06-07T12:51:23.496Z,9.20
2019-06-07T12:53:53.328Z,8.93
2019-06-07T12:56:24.230Z,9.63
2019-06-07T12:58:54.413Z,8.85
2019-06-07T13:01:24.870Z,8.80
2019-06-07T13:03:54.763Z,9.05
2019-06-07T13:06:24.488Z,8.85
2019-06-07T13:08:54.262Z,8.48
2019-06-07T13:11:28.245Z,8.63
2019-06-07T13:13:55.515Z,7.62
2019-06-07T13:16:25.327Z,7.97
2019-06-07T13:18:55.180Z,7.47
2019-06-07T13:21:24.995Z,7.37
2019-06-07T13:23:54.774Z,7.40
2019-06-07T13:26:25.049Z,6.60
2019-06-07T13:28:55.551Z,6.60
2019-06-07T13:31:25.361Z,6.45
2019-06-07T13:33:55.142Z,6.17
2019-06-07T13:36:24.958Z,5.87
2019-06-07T13:38:54.703Z,5.75
2019-06-07T13:41:36.346Z,6.37
2019-06-07T13:43:56.987Z,5.67
2019-06-07T13:46:27.199Z,5.72
2019-06-07T13:48:57.240Z,5.53
2019-06-07T13:51:28.618Z,5.87
2019-06-07T13:53:58.433Z,5.60
2019-06-07T13:56:28.419Z,5.37
2019-06-07T13:58:58.210Z,6.55
2019-06-07T14:01:29.003Z,5.70
2019-06-07T14:03:59.065Z,6.10
2019-06-07T14:06:30.251Z,5.90
2019-06-07T14:09:00.230Z,5.65
2019-06-07T14:11:40.737Z,5.50
2019-06-07T14:14:01.579Z,5.60
2019-06-07T14:16:31.296Z,5.72
2019-06-07T14:19:02.008Z,5.20
2019-06-07T14:21:31.836Z,5.25
2019-06-07T14:24:01.773Z,5.15
2019-06-07T14:26:32.529Z,5.08
2019-06-07T14:29:02.579Z,4.80
2019-06-07T14:31:32.377Z,5.28
2019-06-07T14:34:02.519Z,5.15
2019-06-07T14:36:33.310Z,4.67
2019-06-07T14:39:04.939Z,4.62
2019-06-07T14:41:34.716Z,5.33
2019-06-07T14:44:04.730Z,4.70
2019-06-07T14:46:34.557Z,4.58
2019-06-07T14:49:04.316Z,4.90
2019-06-07T14:51:35.286Z,4.90
2019-06-07T14:54:05.386Z,4.58
2019-06-07T14:56:35.386Z,4.70
2019-06-07T14:59:05.324Z,5.37
2019-06-07T15:01:35.695Z,4.70
2019-06-07T15:04:05.970Z,4.25
2019-06-07T15:06:35.798Z,4.33
2019-06-07T15:09:07.030Z,4.40
2019-06-07T15:11:36.881Z,4.50
2019-06-07T15:14:06.800Z,4.58
2019-06-07T15:16:37.823Z,4.03
2019-06-07T15:19:08.084Z,4.50
2019-06-07T15:21:39.207Z,4.40
2019-06-07T15:24:09.323Z,4.42
2019-06-07T15:26:39.124Z,4.40
2019-06-07T15:29:09.028Z,4.20
2019-06-07T15:31:38.831Z,3.87
2019-06-07T15:34:09.091Z,3.65
2019-06-07T15:36:38.917Z,3.80
2019-06-07T15:39:09.115Z,4.55
2019-06-07T15:41:39.702Z,4.05
2019-06-07T15:44:09.894Z,3.70
2019-06-07T15:46:40.152Z,4.70
2019-06-07T15:49:10.254Z,4.20
2019-06-07T15:51:41.014Z,4.50
2019-06-07T15:54:10.987Z,4.62
2019-06-07T15:56:41.223Z,4.80
2019-06-07T15:59:11.238Z,4.60
2019-06-07T16:01:42.122Z,4.97
2019-06-07T16:04:12.187Z,4.60
2019-06-07T16:06:43.584Z,4.70
2019-06-07T16:09:13.555Z,4.30
2019-06-07T16:11:43.941Z,4.67
2019-06-07T16:14:14.188Z,4.08
2019-06-07T16:16:43.918Z,4.80
2019-06-07T16:19:13.793Z,4.97
2019-06-07T16:21:43.778Z,4.92
2019-06-07T16:24:13.567Z,4.78
2019-06-07T16:26:44.610Z,4.60
2019-06-07T16:29:15.842Z,4.62
2019-06-07T16:31:45.630Z,4.40
2019-06-07T16:34:15.447Z,5.58
2019-06-07T16:36:46.813Z,5.20
2019-06-07T16:39:16.738Z,5.60
2019-06-07T16:41:46.436Z,6.08
2019-06-07T16:44:16.211Z,6.20
2019-06-07T16:46:45.955Z,5.40
2019-06-07T16:49:15.756Z,5.72
2019-06-07T16:51:45.514Z,5.30
2019-06-07T16:54:15.233Z,4.92
2019-06-07T16:56:48.112Z,5.20
2019-06-07T16:59:16.598Z,5.42
2019-06-07T17:01:46.429Z,5.05
2019-06-07T17:04:16.324Z,5.40
2019-06-07T17:06:46.505Z,5.80
2019-06-07T17:09:16.719Z,5.62
2019-06-07T17:11:46.604Z,5.40
2019-06-07T17:14:16.390Z,5.72
2019-06-07T17:16:47.940Z,5.53
2019-06-07T17:19:17.637Z,5.55
2019-06-07T17:21:47.591Z,5.67
2019-06-07T17:24:17.511Z,5.65
2019-06-07T17:26:47.697Z,5.47
2019-06-07T17:29:17.729Z,6.28
2019-06-07T17:31:48.248Z,5.47
2019-06-07T17:34:18.225Z,5.55
2019-06-07T17:36:48.648Z,6.10
2019-06-07T17:39:18.912Z,5.62
2019-06-07T17:41:59.794Z,5.97
2019-06-07T17:44:22.610Z,6.10
2019-06-07T17:46:52.330Z,5.75
2019-06-07T17:49:22.099Z,6.67
2019-06-07T17:51:52.298Z,6.28
2019-06-07T17:54:22.210Z,5.40
2019-06-07T17:56:53.142Z,6.15
2019-06-07T17:59:23.111Z,6.25
2019-06-07T18:02:13.440Z,6.37
2019-06-07T18:04:24.892Z,6.05
2019-06-07T18:06:55.211Z,6.58
2019-06-07T18:09:26.101Z,6.35
2019-06-07T18:11:55.943Z,6.10
2019-06-07T18:14:25.923Z,6.25
2019-06-07T18:16:55.843Z,6.60
2019-06-07T18:19:25.836Z,5.92
2019-06-07T18:21:58.825Z,6.60
2019-06-07T18:24:27.559Z,6.42
2019-06-07T18:26:58.809Z,6.08
2019-06-07T18:29:33.348Z,6.28
2019-06-07T18:32:03.281Z,6.55
2019-06-07T18:34:39.040Z,6.55
2019-06-07T18:37:08.965Z,7.03
2019-06-07T18:39:43.481Z,6.97
2019-06-07T18:42:13.543Z,8.50
2019-06-07T18:44:46.924Z,9.70
2019-06-07T18:47:16.949Z,8.80
2019-06-07T18:49:49.575Z,8.45
2019-06-07T18:52:23.563Z,7.35
2019-06-07T18:54:54.979Z,7.40
2019-06-07T18:57:37.569Z,6.55
2019-06-07T19:00:10.323Z,6.65
2019-06-07T19:02:40.734Z,6.75
2019-06-07T19:05:12.379Z,6.90
2019-06-07T19:07:42.371Z,7.20
2019-06-07T19:10:13.690Z,7.10
2019-06-07T19:12:45.353Z,7.12
2019-06-07T19:15:16.692Z,7.40
2019-06-07T19:17:47.674Z,7.70
2019-06-07T19:20:20.563Z,7.22
2019-06-07T19:22:50.452Z,7.25
2019-06-07T19:25:21.380Z,7.15
2019-06-07T19:27:52.576Z,6.97
2019-06-07T19:30:23.902Z,7.28
2019-06-07T19:32:54.983Z,7.30
2019-06-07T19:35:25.283Z,7.30
2019-06-07T19:37:55.846Z,7.75
2019-06-07T19:40:26.034Z,7.12
2019-06-07T19:42:56.472Z,7.42
2019-06-07T19:45:31.239Z,7.90
2019-06-07T19:48:00.739Z,7.05
2019-06-07T19:50:30.820Z,7.20
2019-06-07T19:53:01.310Z,7.78
2019-06-07T19:55:31.616Z,7.58
2019-06-07T19:58:03.766Z,7.15
2019-06-07T20:00:33.101Z,7.62
2019-06-07T20:03:04.294Z,7.50
2019-06-07T20:05:34.536Z,7.20
2019-06-07T20:08:06.951Z,7.72
2019-06-07T20:10:36.868Z,8.05
2019-06-07T20:13:06.702Z,7.22
2019-06-07T20:15:36.739Z,7.90
2019-06-07T20:18:07.702Z,8.10
2019-06-07T20:20:37.972Z,8.15
2019-06-07T20:23:09.248Z,7.97
2019-06-07T20:25:39.381Z,8.33
2019-06-07T20:28:09.415Z,8.58
2019-06-07T20:30:39.395Z,9.03
2019-06-07T20:33:09.193Z,8.15
2019-06-07T20:35:39.135Z,8.30
2019-06-07T20:38:09.555Z,8.65
2019-06-07T20:40:42.012Z,7.65
2019-06-07T20:43:11.932Z,8.08
2019-06-07T20:45:41.861Z,8.93
2019-06-07T20:48:11.729Z,8.80
2019-06-07T20:50:44.060Z,7.97
2019-06-07T20:53:13.902Z,8.45
2019-06-07T20:55:43.711Z,8.73
2019-06-07T20:58:13.952Z,9.00
2019-06-07T21:00:43.772Z,7.40
2019-06-07T21:03:13.523Z,9.38
2019-06-07T21:05:43.371Z,8.78
2019-06-07T21:08:13.266Z,8.55
2019-06-07T21:10:43.120Z,8.43
2019-06-07T21:13:12.967Z,8.73
2019-06-07T21:15:48.864Z,9.13
2019-06-07T21:18:19.418Z,8.90
2019-06-07T21:20:45.850Z,8.28
2019-06-07T21:23:15.710Z,8.68
2019-06-07T21:25:45.488Z,8.93
2019-06-07T21:28:15.464Z,7.90
2019-06-07T21:30:45.265Z,8.65
2019-06-07T21:33:15.136Z,9.00
2019-06-07T21:35:48.149Z,7.80
2019-06-07T21:38:36.163Z,8.50
2019-06-07T21:41:08.468Z,8.13
2019-06-07T21:43:47.406Z,8.50
2019-06-07T21:46:27.223Z,7.65
2019-06-07T21:48:59.600Z,7.45
2019-06-07T21:51:29.510Z,7.90
2019-06-07T21:54:09.573Z,7.40
2019-06-07T21:56:43.627Z,8.50
2019-06-07T21:59:17.082Z,8.20
2019-06-07T22:01:47.992Z,8.78
2019-06-07T22:04:17.770Z,9.28
2019-06-07T22:06:47.596Z,8.63
2019-06-07T22:09:18.602Z,8.70
2019-06-07T22:11:49.810Z,8.98
2019-06-07T22:14:19.695Z,8.83
2019-06-07T22:16:49.534Z,8.48
2019-06-07T22:19:19.339Z,8.20
2019-06-07T22:22:02.250Z,9.20
2019-06-07T22:24:23.673Z,8.53
2019-06-07T22:26:53.534Z,8.55
2019-06-07T22:29:23.370Z,8.73
2019-06-07T22:31:53.205Z,9.00
2019-06-07T22:34:23.092Z,9.28
2019-06-07T22:36:52.983Z,8.75
2019-06-07T22:39:22.925Z,8.95
2019-06-07T22:41:54.743Z,8.78
2019-06-07T22:44:24.551Z,9.33
2019-06-07T22:46:54.677Z,9.05
2019-06-07T22:49:24.633Z,8.98
2019-06-07T22:52:07.976Z,8.05
2019-06-07T22:54:25.977Z,8.35
2019-06-07T22:57:00.090Z,8.93
2019-06-07T22:59:29.983Z,8.63
2019-06-07T23:01:59.851Z,8.68
2019-06-07T23:04:30.003Z,9.20
2019-06-07T23:06:59.895Z,8.68
2019-06-07T23:09:29.872Z,8.80
2019-06-07T23:11:59.729Z,8.25
2019-06-07T23:14:29.655Z,8.93
2019-06-07T23:16:59.448Z,8.90
2019-06-07T23:19:29.334Z,8.43
2019-06-07T23:21:59.250Z,8.50
2019-06-07T23:24:29.065Z,9.28
2019-06-07T23:26:58.886Z,8.63
2019-06-07T23:29:28.717Z,8.25
2019-06-07T23:31:58.716Z,8.25
2019-06-07T23:34:28.612Z,8.50
2019-06-07T23:36:58.463Z,7.62
2019-06-07T23:39:28.318Z,7.28
2019-06-07T23:41:58.157Z,7.78
2019-06-07T23:44:27.978Z,7.97
2019-06-07T23:47:10.403Z,7.00
2019-06-07T23:49:30.492Z,7.92
2019-06-07T23:52:00.408Z,9.03
2019-06-07T23:54:30.223Z,12.50
2019-06-07T23:57:00.113Z,9.20
2019-06-07T23:59:30.009Z,8.65
